Time;durP1;ratioP1;P1;durP2;ratioP2;P2;SDS_P1;SDS_P2;PMS_P1;PMS_P2;Temp;Humidity;BMP_temperature;BMP_pressure;BME280_temperature;BME280_humidity;BME280_pressure;Samples;Min_cycle;Max_cycle;Signal;HPM_P1;HPM_P2
2021/08/26 00:06:16;;;;;;;4.43;1.30;;;;;;;14.39;100.00;100999.31;6223792;28;20425;-75
2021/08/26 00:09:17;;;;;;;2.63;0.85;;;;;;;14.40;100.00;101001.88;6223701;28;20054;-76
2021/08/26 00:12:20;;;;;;;1.20;0.70;;;;;;;14.38;100.00;101002.91;6224043;28;20045;-75
2021/08/26 00:15:21;;;;;;;1.48;0.85;;;;;;;14.38;100.00;101005.53;6223422;28;20054;-76
2021/08/26 00:18:24;;;;;;;6.10;1.27;;;;;;;14.34;100.00;101006.69;6223751;28;20057;-75
2021/08/26 00:21:27;;;;;;;2.70;1.17;;;;;;;14.55;100.00;101012.41;6223589;28;20054;-75
2021/08/26 00:24:28;;;;;;;3.35;1.48;;;;;;;14.34;100.00;101004.03;6223303;28;20132;-75
2021/08/26 00:27:30;;;;;;;3.85;0.95;;;;;;;14.48;100.00;101004.03;6223363;28;20057;-75
2021/08/26 00:30:31;;;;;;;2.08;1.67;;;;;;;14.47;100.00;100999.66;6223589;28;20053;-76
2021/08/26 00:33:34;;;;;;;5.10;1.48;;;;;;;14.50;100.00;101002.16;6223061;28;20053;-75
2021/08/26 00:36:35;;;;;;;7.22;1.17;;;;;;;14.40;100.00;100998.38;6223679;28;20046;-75
2021/08/26 00:39:36;;;;;;;3.38;1.25;;;;;;;14.31;100.00;100998.97;6223335;28;20045;-75
2021/08/26 00:42:39;;;;;;;3.38;1.10;;;;;;;14.32;100.00;101003.31;6223240;28;20046;-76
2021/08/26 00:45:41;;;;;;;4.97;0.88;;;;;;;14.41;100.00;100995.63;6223525;28;20058;-76
2021/08/26 00:48:45;;;;;;;2.13;0.77;;;;;;;14.35;100.00;100993.41;6223487;28;20149;-76
2021/08/26 00:51:47;;;;;;;3.95;0.80;;;;;;;14.39;100.00;100986.94;6223387;28;20058;-76
2021/08/26 00:54:48;;;;;;;2.35;1.08;;;;;;;14.24;100.00;100982.66;6223041;28;20046;-75
2021/08/26 00:57:50;;;;;;;4.43;2.33;;;;;;;14.23;100.00;100985.41;6223224;28;20049;-75
2021/08/26 01:00:56;;;;;;;3.40;0.95;;;;;;;14.23;100.00;100975.69;6222750;28;20061;-75
2021/08/26 01:04:07;;;;;;;3.45;1.33;;;;;;;14.20;100.00;100971.41;6222822;28;20057;-75
2021/08/26 01:07:19;;;;;;;3.45;0.90;;;;;;;14.23;100.00;100967.75;6222748;28;20054;-75
2021/08/26 01:10:24;;;;;;;3.13;0.63;;;;;;;14.32;100.00;100968.94;6222130;28;20053;-75
2021/08/26 01:13:30;;;;;;;2.72;0.90;;;;;;;14.20;100.00;100960.00;6222413;28;20072;-75
2021/08/26 01:16:36;;;;;;;4.15;0.75;;;;;;;14.15;100.00;100965.59;6222652;28;20062;-75
2021/08/26 01:19:39;;;;;;;5.78;0.90;;;;;;;14.19;100.00;100959.16;6222453;28;20512;-75
2021/08/26 01:22:41;;;;;;;6.90;1.33;;;;;;;14.17;100.00;100954.91;6222569;28;20057;-75
2021/08/26 01:25:45;;;;;;;3.15;1.17;;;;;;;14.17;100.00;100954.91;6222149;28;20425;-75
2021/08/26 01:28:49;;;;;;;3.65;1.02;;;;;;;14.10;100.00;100948.34;6247396;22;20050;-79
2021/08/26 01:31:51;;;;;;;1.88;0.85;;;;;;;14.10;100.00;100953.63;6238234;28;20041;-79
2021/08/26 01:34:53;;;;;;;1.75;1.10;;;;;;;14.12;100.00;100952.56;6223491;28;20057;-77
2021/08/26 01:37:55;;;;;;;1.58;0.63;;;;;;;14.11;100.00;100945.59;6223080;28;20049;-78
2021/08/26 01:40:57;;;;;;;6.60;1.75;;;;;;;14.13;100.00;100948.16;6239111;28;20428;-79
2021/08/26 01:43:59;;;;;;;6.75;1.40;;;;;;;14.18;100.00;100944.25;6246493;28;20500;-80
2021/08/26 01:47:05;;;;;;;3.28;1.13;;;;;;;14.11;100.00;100948.22;6239389;28;20060;-78
2021/08/26 01:50:07;;;;;;;1.73;1.10;;;;;;;14.21;100.00;100957.25;6241914;28;20050;-80
2021/08/26 01:53:09;;;;;;;2.78;1.23;;;;;;;14.12;100.00;100957.84;6239102;28;20045;-78
2021/08/26 01:56:11;;;;;;;1.90;0.80;;;;;;;14.26;100.00;100953.47;6246840;28;20523;-79
2021/08/26 01:59:13;;;;;;;1.17;0.77;;;;;;;14.12;100.00;100951.72;6247564;28;20060;-79
2021/08/26 02:02:14;;;;;;;5.72;0.90;;;;;;;14.05;100.00;100953.06;6246989;28;20049;-78
2021/08/26 02:05:16;;;;;;;2.47;1.13;;;;;;;14.09;100.00;100947.50;6247320;28;20049;-79
2021/08/26 02:08:17;;;;;;;3.20;0.70;;;;;;;14.03;100.00;100947.88;6247194;28;20092;-79
2021/08/26 02:11:20;;;;;;;1.83;0.80;;;;;;;14.12;100.00;100943.78;6246608;28;20500;-78
2021/08/26 02:14:21;;;;;;;10.15;1.08;;;;;;;14.17;100.00;100942.56;6246868;28;20070;-80
2021/08/26 02:17:23;;;;;;;5.35;1.05;;;;;;;14.07;100.00;100941.44;6246805;28;20053;-78
2021/08/26 02:20:24;;;;;;;4.68;1.50;;;;;;;14.16;100.00;100945.28;6247008;28;20053;-79
2021/08/26 02:23:26;;;;;;;4.22;0.90;;;;;;;14.07;100.00;100936.16;6249072;28;20129;-79
2021/08/26 02:26:29;;;;;;;7.20;1.85;;;;;;;14.06;100.00;100925.69;6251642;28;20056;-79
2021/08/26 02:29:30;;;;;;;1.95;0.90;;;;;;;14.08;100.00;100937.00;6251990;28;20049;-79
2021/08/26 02:32:31;;;;;;;5.75;1.63;;;;;;;14.11;100.00;100936.81;6251740;28;20508;-79
2021/08/26 02:35:33;;;;;;;0.95;0.85;;;;;;;13.98;100.00;100938.56;6251371;28;20046;-76
2021/08/26 02:38:34;;;;;;;8.52;2.00;;;;;;;14.00;100.00;100941.97;6251746;28;20049;-79
2021/08/26 02:41:37;;;;;;;4.18;0.60;;;;;;;14.02;100.00;100935.63;6251264;28;20050;-79
2021/08/26 02:44:39;;;;;;;1.98;0.88;;;;;;;13.93;100.00;100934.41;6251098;28;20068;-79
2021/08/26 02:47:40;;;;;;;6.03;1.10;;;;;;;13.88;100.00;100918.00;6251282;28;20412;-79
2021/08/26 02:50:42;;;;;;;6.20;1.73;;;;;;;13.91;100.00;100932.84;6251160;28;20056;-79
2021/08/26 02:53:43;;;;;;;1.45;1.30;;;;;;;13.97;100.00;100932.44;6251123;28;20048;-79
2021/08/26 02:56:46;;;;;;;3.47;1.13;;;;;;;13.85;100.00;100936.72;6250626;28;20420;-78
2021/08/26 02:59:47;;;;;;;5.47;0.77;;;;;;;13.85;100.00;100931.44;6251112;28;20057;-78
2021/08/26 03:02:48;;;;;;;2.33;1.02;;;;;;;13.88;100.00;100928.56;6250607;28;20048;-79
2021/08/26 03:05:50;;;;;;;1.63;0.98;;;;;;;13.89;100.00;100930.25;6250820;28;20052;-79
2021/08/26 03:08:51;;;;;;;2.08;0.68;;;;;;;13.90;100.00;100933.78;6250362;28;20053;-78
2021/08/26 03:11:54;;;;;;;4.45;0.57;;;;;;;13.85;100.00;100928.78;6250759;28;20053;-78
2021/08/26 03:14:55;;;;;;;1.80;0.88;;;;;;;13.81;100.00;100929.94;6250591;28;20060;-78
2021/08/26 03:17:56;;;;;;;2.47;1.25;;;;;;;13.81;100.00;100923.81;6250932;28;20049;-78
2021/08/26 03:20:58;;;;;;;8.13;1.17;;;;;;;13.81;100.00;100926.44;6250379;28;20566;-76
2021/08/26 03:23:59;;;;;;;6.15;1.65;;;;;;;13.83;100.00;100928.03;6250470;28;20405;-78
2021/08/26 03:27:02;;;;;;;3.58;1.00;;;;;;;13.82;100.00;100936.91;6250413;28;20500;-79
2021/08/26 03:30:04;;;;;;;13.82;2.05;;;;;;;13.83;100.00;100933.31;6250967;28;20057;-78
2021/08/26 03:33:05;;;;;;;0.65;0.63;;;;;;;13.81;100.00;100927.28;6250219;28;20516;-79
2021/08/26 03:36:07;;;;;;;4.13;0.75;;;;;;;13.92;100.00;100935.38;6249662;28;20060;-78
2021/08/26 03:39:08;;;;;;;4.13;1.55;;;;;;;13.90;100.00;100937.28;6250165;28;20049;-78
2021/08/26 03:42:11;;;;;;;1.60;0.95;;;;;;;13.86;100.00;100935.78;6249906;28;20053;-78
2021/08/26 03:45:12;;;;;;;3.72;1.30;;;;;;;13.81;100.00;100926.44;6249960;28;20049;-79
2021/08/26 03:48:14;;;;;;;2.55;1.17;;;;;;;13.79;100.00;100930.97;6249725;28;20421;-78
2021/08/26 03:51:15;;;;;;;1.92;0.90;;;;;;;13.85;100.00;100925.28;6249921;28;20516;-75
2021/08/26 03:54:16;;;;;;;0.75;0.52;;;;;;;13.77;100.00;100925.78;6249189;28;20420;-77
2021/08/26 03:57:19;;;;;;;4.40;0.70;;;;;;;13.73;100.00;100921.66;6249751;28;20060;-79
2021/08/26 04:00:20;;;;;;;3.80;0.80;;;;;;;13.75;100.00;100924.19;6249697;28;20053;-78
2021/08/26 04:03:21;;;;;;;3.92;1.40;;;;;;;13.64;100.00;100928.34;6249228;28;20056;-78
2021/08/26 04:06:23;;;;;;;8.20;1.10;;;;;;;13.68;100.00;100931.66;6249052;28;20045;-79
2021/08/26 04:09:24;;;;;;;4.32;2.30;;;;;;;13.61;100.00;100927.69;6248718;28;20046;-78
2021/08/26 04:12:28;;;;;;;2.08;0.80;;;;;;;13.59;100.00;100927.81;6249158;28;20049;-76
2021/08/26 04:15:29;;;;;;;7.03;1.42;;;;;;;13.58;100.00;100925.25;6248919;28;20397;-79
2021/08/26 04:18:31;;;;;;;3.35;0.90;;;;;;;13.52;100.00;100931.75;6249071;28;20436;-78
2021/08/26 04:21:33;;;;;;;2.25;1.05;;;;;;;13.52;100.00;100929.13;6248814;28;20436;-77
2021/08/26 04:24:34;;;;;;;3.15;1.00;;;;;;;13.45;100.00;100918.09;6248591;28;20045;-78
2021/08/26 04:27:37;;;;;;;4.93;0.80;;;;;;;13.44;100.00;100913.78;6248579;28;20053;-76
2021/08/26 04:30:38;;;;;;;1.67;0.73;;;;;;;13.43;100.00;100912.06;6248512;28;20531;-78
2021/08/26 04:33:40;;;;;;;4.20;1.02;;;;;;;13.45;100.00;100919.91;6248536;28;20052;-78
2021/08/26 04:36:41;;;;;;;2.28;0.80;;;;;;;13.41;100.00;100918.41;6248650;28;20049;-78
2021/08/26 04:39:42;;;;;;;1.70;1.05;;;;;;;13.37;100.00;100920.38;6248381;28;20060;-78
2021/08/26 04:42:45;;;;;;;6.93;0.95;;;;;;;13.42;100.00;100918.28;6248573;28;20052;-79
2021/08/26 04:45:47;;;;;;;2.17;1.02;;;;;;;13.42;100.00;100920.94;6247787;28;20623;-78
2021/08/26 04:48:48;;;;;;;6.45;1.55;;;;;;;13.52;100.00;100920.34;6248079;28;20045;-79
2021/08/26 04:51:50;;;;;;;2.83;1.17;;;;;;;13.44;100.00;100918.19;6248285;28;20049;-78
2021/08/26 04:54:51;;;;;;;3.40;1.25;;;;;;;13.45;100.00;100925.19;6248344;28;20041;-79
2021/08/26 04:57:54;;;;;;;1.77;1.10;;;;;;;13.44;100.00;100924.34;6247899;28;20408;-79
2021/08/26 05:00:55;;;;;;;6.38;1.35;;;;;;;13.49;100.00;100917.91;6247863;28;20055;-79
2021/08/26 05:03:56;;;;;;;3.00;1.85;;;;;;;13.42;100.00;100914.81;6247827;28;20052;-77
2021/08/26 05:06:57;;;;;;;1.52;0.88;;;;;;;13.43;100.00;100917.34;6247671;28;20057;-78
2021/08/26 05:09:59;;;;;;;3.28;0.95;;;;;;;13.42;100.00;100914.81;6235582;28;20061;-79
2021/08/26 05:13:01;;;;;;;2.83;1.02;;;;;;;13.38;100.00;100914.13;6233589;28;20401;-77
2021/08/26 05:16:03;;;;;;;3.83;1.25;;;;;;;13.41;100.00;100921.88;6240462;28;20060;-78
2021/08/26 05:19:05;;;;;;;3.20;1.20;;;;;;;13.40;100.00;100924.63;6242382;28;20054;-78
2021/08/26 05:22:06;;;;;;;1.08;0.80;;;;;;;13.43;100.00;100927.06;6237893;28;20061;-78
2021/08/26 05:25:09;;;;;;;1.95;0.80;;;;;;;13.44;100.00;100926.09;6237296;28;20510;-78
2021/08/26 05:28:12;;;;;;;3.85;0.88;;;;;;;13.45;100.00;100926.03;6240764;28;20501;-78
2021/08/26 05:31:15;;;;;;;4.38;1.50;;;;;;;13.44;100.00;100932.25;6237901;28;20520;-77
2021/08/26 05:34:17;;;;;;;4.82;1.38;;;;;;;13.49;100.00;100934.59;6241546;28;20049;-77
2021/08/26 05:37:18;;;;;;;3.60;2.03;;;;;;;13.53;100.00;100938.72;6246163;28;20057;-77
2021/08/26 05:40:19;;;;;;;2.30;1.10;;;;;;;13.54;100.00;100945.72;6220297;28;20053;-79
2021/08/26 05:43:22;;;;;;;2.60;1.13;;;;;;;13.57;100.00;100942.03;6222506;28;20042;-78
2021/08/26 05:46:23;;;;;;;0.88;0.65;;;;;;;13.58;100.00;100941.09;6213503;28;20054;-79
2021/08/26 05:49:25;;;;;;;4.93;1.17;;;;;;;13.55;100.00;100930.72;6209305;28;20416;-78
2021/08/26 05:52:26;;;;;;;7.18;0.93;;;;;;;13.57;100.00;100931.47;6222367;28;20049;-78
2021/08/26 05:55:28;;;;;;;6.03;1.15;;;;;;;13.59;100.00;100919.88;6222747;28;20050;-77
2021/08/26 05:58:31;;;;;;;2.53;1.27;;;;;;;13.62;100.00;100930.22;6237854;28;20057;-78
2021/08/26 06:01:32;;;;;;;3.72;1.38;;;;;;;13.61;100.00;100938.25;6252318;28;20053;-78
2021/08/26 06:04:33;;;;;;;6.28;1.63;;;;;;;13.64;100.00;100927.50;6239352;28;20048;-78
2021/08/26 06:07:35;;;;;;;2.67;1.42;;;;;;;13.58;100.00;100934.03;6238384;28;20045;-78
2021/08/26 06:10:37;;;;;;;1.83;1.10;;;;;;;13.60;100.00;100940.06;6239174;28;20077;-78
2021/08/26 06:13:40;;;;;;;6.15;1.42;;;;;;;13.63;100.00;100933.75;6223705;28;20052;-77
2021/08/26 06:16:41;;;;;;;1.67;1.05;;;;;;;13.64;100.00;100924.88;6235395;28;20053;-78
2021/08/26 06:19:43;;;;;;;4.53;1.73;;;;;;;13.75;100.00;100918.91;6249583;28;20046;-78
2021/08/26 06:22:45;;;;;;;1.95;1.23;;;;;;;13.80;100.00;100922.09;6252013;28;20060;-77
2021/08/26 06:25:46;;;;;;;3.10;1.60;;;;;;;13.88;100.00;100930.38;6251546;28;20057;-78
2021/08/26 06:28:49;;;;;;;4.10;1.85;;;;;;;13.87;100.00;100929.53;6251778;28;20060;-78
2021/08/26 06:31:50;;;;;;;6.97;1.67;;;;;;;13.91;100.00;100925.75;6251697;28;20057;-77
2021/08/26 06:34:51;;;;;;;1.20;1.08;;;;;;;13.98;100.00;100933.28;6251532;28;20056;-76
2021/08/26 06:37:53;;;;;;;4.50;1.35;;;;;;;14.05;100.00;100939.88;6251585;28;20046;-76
2021/08/26 06:40:54;;;;;;;4.28;1.35;;;;;;;14.07;100.00;100933.53;6248853;28;20053;-76
2021/08/26 06:43:57;;;;;;;2.88;1.75;;;;;;;14.16;100.00;100940.00;6242254;28;20048;-75
2021/08/26 06:46:58;;;;;;;4.88;1.60;;;;;;;14.14;100.00;100944.56;6251596;28;20052;-78
2021/08/26 06:49:59;;;;;;;4.70;1.20;;;;;;;14.15;100.00;100935.66;6251529;28;20049;-77
2021/08/26 06:53:01;;;;;;;6.45;1.80;;;;;;;14.23;100.00;100940.47;6251364;28;20056;-77
2021/08/26 06:56:02;;;;;;;6.85;1.58;;;;;;;14.25;100.00;100935.91;6250841;28;20045;-77
2021/08/26 06:59:05;;;;;;;8.00;1.77;;;;;;;14.32;100.00;100929.28;6250026;28;20057;-77
2021/08/26 07:02:06;;;;;;;6.68;1.75;;;;;;;14.48;100.00;100932.63;6249319;28;20049;-76
2021/08/26 07:05:08;;;;;;;3.63;1.52;;;;;;;14.43;100.00;100927.59;6248854;28;20050;-78
2021/08/26 07:08:09;;;;;;;9.45;1.42;;;;;;;14.49;100.00;100915.84;6248801;28;20049;-77
2021/08/26 07:11:11;;;;;;;4.65;1.50;;;;;;;14.54;100.00;100910.22;6248787;28;20055;-75
2021/08/26 07:14:14;;;;;;;2.55;1.60;;;;;;;14.62;100.00;100907.91;6248800;28;20409;-78
2021/08/26 07:17:15;;;;;;;2.97;2.17;;;;;;;14.69;100.00;100919.75;6250737;28;20045;-75
2021/08/26 07:20:16;;;;;;;4.30;1.30;;;;;;;14.80;100.00;100911.94;6250198;28;20460;-78
2021/08/26 07:23:18;;;;;;;5.80;1.90;;;;;;;14.86;100.00;100921.28;6250016;28;20488;-76
2021/08/26 07:26:19;;;;;;;2.88;1.35;;;;;;;14.91;100.00;100924.44;6249763;28;20053;-76
2021/08/26 07:29:22;;;;;;;8.05;1.75;;;;;;;14.88;100.00;100922.00;6248960;22;20082;-75
2021/08/26 07:32:23;;;;;;;2.97;1.45;;;;;;;14.88;100.00;100919.34;6224906;28;20061;-75
2021/08/26 07:35:25;;;;;;;4.05;1.65;;;;;;;14.93;100.00;100923.38;6206079;28;20054;-75
2021/08/26 07:38:26;;;;;;;3.05;1.50;;;;;;;14.93;100.00;100931.31;6209132;28;20053;-75
2021/08/26 07:41:29;;;;;;;9.18;1.63;;;;;;;15.03;100.00;100931.53;6224739;28;20081;-75
2021/08/26 07:44:32;;;;;;;4.20;1.33;;;;;;;15.13;100.00;100945.84;6224447;28;20046;-75
2021/08/26 07:47:33;;;;;;;6.40;1.38;;;;;;;15.24;100.00;100939.78;6228984;28;20046;-75
2021/08/26 07:50:35;;;;;;;7.25;1.67;;;;;;;15.38;100.00;100937.00;6240668;28;20117;-75
2021/08/26 07:53:36;;;;;;;4.22;1.38;;;;;;;15.51;100.00;100944.09;6248790;28;20493;-75
2021/08/26 07:56:38;;;;;;;5.18;1.25;;;;;;;15.64;100.00;100937.00;6223825;28;20049;-75
2021/08/26 07:59:41;;;;;;;2.00;1.20;;;;;;;15.69;100.00;100929.56;6200091;28;20050;-74
2021/08/26 08:02:42;;;;;;;4.75;1.77;;;;;;;15.85;100.00;100939.91;6229209;28;20080;-75
2021/08/26 08:05:44;;;;;;;3.35;1.30;;;;;;;15.87;100.00;100936.19;6230294;28;20141;-75
2021/08/26 08:08:45;;;;;;;5.10;1.85;;;;;;;15.77;100.00;100936.97;6216140;28;20046;-74
2021/08/26 08:11:46;;;;;;;3.33;1.52;;;;;;;15.79;100.00;100940.34;6231119;28;20124;-73
2021/08/26 08:14:49;;;;;;;4.95;1.52;;;;;;;16.07;100.00;100934.72;6233209;28;20124;-75
2021/08/26 08:17:51;;;;;;;8.88;2.58;;;;;;;16.17;100.00;100927.81;6247334;28;20060;-75
2021/08/26 08:20:52;;;;;;;4.72;2.05;;;;;;;16.18;100.00;100932.16;6247524;28;20515;-75
2021/08/26 08:23:53;;;;;;;9.95;2.50;;;;;;;16.18;100.00;100924.19;6226827;28;20042;-74
2021/08/26 08:26:56;;;;;;;5.13;2.22;;;;;;;16.37;100.00;100921.03;6206132;28;20060;-76
2021/08/26 08:29:59;;;;;;;10.57;2.38;;;;;;;16.51;100.00;100925.28;6223683;28;20057;-77
2021/08/26 08:33:00;;;;;;;2.60;1.70;;;;;;;16.49;100.00;100925.41;6204151;28;20061;-75
2021/08/26 08:36:01;;;;;;;6.13;2.55;;;;;;;16.46;100.00;100925.63;6215552;28;20061;-77
2021/08/26 08:39:03;;;;;;;6.18;1.38;;;;;;;16.45;100.00;100917.81;6230290;28;20058;-78
2021/08/26 08:42:04;;;;;;;10.23;2.60;;;;;;;16.43;100.00;100925.84;6199445;28;20050;-76
2021/08/26 08:45:08;;;;;;;3.75;1.50;;;;;;;16.48;100.00;100923.69;6199143;28;20501;-77
2021/08/26 08:48:10;;;;;;;4.40;1.00;;;;;;;16.43;100.00;100919.72;6184328;28;20050;-77
2021/08/26 08:51:12;;;;;;;5.40;1.92;;;;;;;16.51;100.00;100925.28;6174944;28;20062;-76
2021/08/26 08:54:13;;;;;;;9.85;1.95;;;;;;;16.43;100.00;100925.00;6174410;28;20043;-76
2021/08/26 08:57:15;;;;;;;3.45;1.58;;;;;;;16.41;100.00;100919.00;6182910;28;20054;-76
2021/08/26 09:00:19;;;;;;;2.53;1.25;;;;;;;16.42;100.00;100907.41;6198648;28;20046;-75
2021/08/26 09:03:21;;;;;;;2.60;1.23;;;;;;;16.36;100.00;100905.22;6198254;28;20061;-73
2021/08/26 09:06:22;;;;;;;6.30;1.58;;;;;;;16.45;100.00;100917.81;6198536;28;20050;-73
2021/08/26 09:09:23;;;;;;;5.82;1.20;;;;;;;16.54;100.00;100918.91;6198178;28;20046;-73
2021/08/26 09:12:47;;;;;;;5.70;1.60;;;;;;;16.59;100.00;100916.75;6196988;28;20401;-73
2021/08/26 09:15:49;;;;;;;6.35;2.05;;;;;;;16.69;100.00;100915.09;6200182;28;20512;-74
2021/08/26 09:18:51;;;;;;;9.35;1.60;;;;;;;16.72;100.00;100921.03;6212201;28;20050;-73
2021/08/26 09:21:52;;;;;;;3.90;1.88;;;;;;;16.88;100.00;100922.50;6222662;28;20420;-73
2021/08/26 09:24:54;;;;;;;2.90;1.48;;;;;;;16.96;100.00;100918.31;6221017;28;20045;-73
2021/08/26 09:27:55;;;;;;;6.18;1.92;;;;;;;17.23;99.45;100919.78;6221275;28;20053;-73
2021/08/26 09:31:12;;;;;;;3.72;1.90;;;;;;;17.21;100.00;100924.34;6221986;28;20497;-73
2021/08/26 09:34:16;;;;;;;1.80;0.80;;;;;;;17.29;99.45;100929.91;6222182;28;20045;-73
2021/08/26 09:37:17;;;;;;;4.85;1.23;;;;;;;17.21;98.76;100917.25;6222190;28;20636;-71
2021/08/26 09:40:20;;;;;;;5.25;1.58;;;;;;;17.11;100.00;100931.34;6222620;28;20054;-75
2021/08/26 09:43:32;;;;;;;5.90;1.50;;;;;;;17.16;98.82;100924.72;6222056;28;20394;-73
2021/08/26 09:46:35;;;;;;;4.78;1.98;;;;;;;17.19;98.29;100928.94;6222184;28;20145;-75
2021/08/26 09:49:39;;;;;;;2.90;0.80;;;;;;;17.24;97.68;100918.81;6222358;28;20049;-74
2021/08/26 09:52:52;;;;;;;4.43;1.67;;;;;;;17.23;97.97;100911.81;6222237;28;20061;-75
2021/08/26 09:56:05;;;;;;;5.60;1.25;;;;;;;17.25;100.00;100923.16;6221969;28;20046;-75
2021/08/26 09:59:06;;;;;;;4.35;1.08;;;;;;;17.36;96.32;100920.50;6221913;28;20074;-75
2021/08/26 10:02:10;;;;;;;13.48;2.58;;;;;;;17.21;96.00;100914.59;6221993;28;20506;-75
2021/08/26 10:05:11;;;;;;;1.73;0.90;;;;;;;17.14;98.16;100913.38;6221971;28;20049;-75
2021/08/26 10:08:13;;;;;;;6.72;1.20;;;;;;;16.98;98.79;100918.19;6221772;28;20049;-74
2021/08/26 10:11:17;;;;;;;6.68;1.63;;;;;;;17.11;95.97;100913.59;6222003;28;20075;-75
2021/08/26 10:14:19;;;;;;;5.85;1.20;;;;;;;16.99;93.89;100902.16;6221659;28;20176;-75
2021/08/26 10:17:21;;;;;;;1.15;0.63;;;;;;;17.14;92.61;100896.59;6221958;28;20049;-75
2021/08/26 10:20:23;;;;;;;5.45;1.60;;;;;;;17.05;96.80;100900.81;6221851;28;20046;-75
2021/08/26 10:23:25;;;;;;;4.13;0.80;;;;;;;17.11;97.44;100904.78;6219293;28;20053;-73
2021/08/26 10:26:29;;;;;;;4.20;0.90;;;;;;;17.23;91.09;100895.88;6184761;28;20043;-74
2021/08/26 10:29:32;;;;;;;1.25;0.90;;;;;;;17.34;90.75;100901.16;6184368;28;20050;-72
2021/08/26 10:32:34;;;;;;;4.05;1.25;;;;;;;17.45;91.68;100900.34;6185122;28;20047;-74
2021/08/26 10:36:00;;;;;;;5.68;0.82;;;;;;;17.61;87.85;100892.81;6175595;28;20426;-74
2021/08/26 10:39:26;;;;;;;6.78;1.25;;;;;;;17.88;85.75;100892.41;6173113;28;20058;-74
2021/08/26 10:42:44;;;;;;;4.05;1.15;;;;;;;18.15;85.57;100872.50;6173181;28;20402;-75
2021/08/26 10:45:48;;;;;;;2.15;1.00;;;;;;;18.22;80.80;100868.38;6181581;28;20042;-75
2021/08/26 10:49:02;;;;;;;5.07;1.40;;;;;;;18.05;78.91;100876.91;6188107;28;20093;-73
2021/08/26 10:52:03;;;;;;;2.38;0.88;;;;;;;17.78;82.81;100886.16;6201718;28;20047;-75
2021/08/26 10:55:06;;;;;;;3.13;0.98;;;;;;;17.62;86.18;100883.03;6194440;28;20058;-75
2021/08/26 10:58:39;;;;;;;4.75;1.10;;;;;;;17.67;87.84;100878.19;6210454;28;20061;-73
2021/08/26 11:01:43;;;;;;;3.33;0.80;;;;;;;17.70;87.62;100877.94;6225768;28;20508;-74
2021/08/26 11:04:46;;;;;;;5.03;1.05;;;;;;;17.78;86.63;100893.31;6225151;28;20104;-75
2021/08/26 11:07:48;;;;;;;1.02;0.52;;;;;;;17.92;84.02;100895.69;6205459;28;20042;-75
2021/08/26 11:10:49;;;;;;;1.45;0.40;;;;;;;17.71;76.13;100890.25;6212244;28;20053;-75
2021/08/26 11:13:51;;;;;;;1.58;0.20;;;;;;;17.61;80.26;100903.44;6224092;28;20054;-75
2021/08/26 11:16:54;;;;;;;3.20;0.30;;;;;;;17.84;82.40;100898.09;6225557;28;20049;-75
2021/08/26 11:19:57;;;;;;;0.35;0.30;;;;;;;18.20;81.26;100891.59;6225324;28;20485;-75
2021/08/26 11:23:12;;;;;;;0.20;0.20;;;;;;;18.57;77.46;100907.97;6225251;28;20050;-73
2021/08/26 11:26:42;;;;;;;2.08;0.80;;;;;;;18.74;73.83;100901.25;6224929;28;20042;-75
2021/08/26 11:29:43;;;;;;;2.58;0.70;;;;;;;18.91;70.18;100907.81;6225109;28;20140;-75
2021/08/26 11:32:44;;;;;;;4.10;0.52;;;;;;;18.99;71.67;100892.84;6224919;28;20413;-75
2021/08/26 11:35:47;;;;;;;0.22;0.15;;;;;;;19.05;69.83;100898.63;6224867;28;20056;-75
2021/08/26 11:38:52;;;;;;;0.82;0.40;;;;;;;19.27;70.09;100901.13;6224638;28;20072;-75
2021/08/26 11:41:54;;;;;;;0.70;0.32;;;;;;;19.46;67.09;100903.00;6224933;28;20425;-75
2021/08/26 11:45:14;;;;;;;1.58;0.28;;;;;;;19.65;64.32;100921.75;6224306;28;20537;-73
2021/08/26 11:48:15;;;;;;;0.10;0.10;;;;;;;19.80;66.35;100921.34;6224684;28;20057;-75
2021/08/26 11:51:27;;;;;;;0.90;0.28;;;;;;;19.86;63.55;100905.66;6224474;28;20050;-74
2021/08/26 11:54:28;;;;;;;1.67;0.35;;;;;;;20.06;61.52;100922.53;6224263;28;20053;-75
2021/08/26 11:57:30;;;;;;;1.05;0.30;;;;;;;20.06;62.01;100916.34;6224041;28;20053;-76
2021/08/26 12:00:32;;;;;;;2.17;0.30;;;;;;;19.66;61.05;100918.09;6224239;28;20060;-75
2021/08/26 12:03:33;;;;;;;2.30;0.40;;;;;;;19.45;63.46;100914.66;6224240;28;20045;-75
2021/08/26 12:06:36;;;;;;;0.10;0.10;;;;;;;19.58;64.73;100914.41;6224039;28;20092;-75
2021/08/26 12:09:38;;;;;;;0.30;0.20;;;;;;;20.08;63.35;100915.25;6224135;28;20442;-75
2021/08/26 12:12:50;;;;;;;0.20;0.20;;;;;;;20.13;63.87;100921.00;6223921;28;20140;-75
2021/08/26 12:15:54;;;;;;;2.08;0.47;;;;;;;20.15;61.91;100918.19;6223796;28;20057;-75
2021/08/26 12:18:55;;;;;;;0.57;0.45;;;;;;;20.36;62.21;100923.41;6223706;28;20049;-76
2021/08/26 12:21:58;;;;;;;1.65;0.43;;;;;;;20.38;58.33;100924.91;6223967;28;20054;-76
2021/08/26 12:25:02;;;;;;;0.50;0.20;;;;;;;20.40;59.55;100920.31;6223510;28;20046;-75
2021/08/26 12:28:06;;;;;;;0.52;0.17;;;;;;;20.28;60.24;100929.44;6223585;28;20073;-76
2021/08/26 12:31:09;;;;;;;2.67;0.73;;;;;;;20.30;62.90;100918.59;6223641;28;20497;-76
2021/08/26 12:34:13;;;;;;;0.25;0.25;;;;;;;20.43;57.94;100912.00;6223520;28;20061;-76
2021/08/26 12:37:15;;;;;;;0.35;0.20;;;;;;;20.46;52.67;100901.03;6223382;28;20060;-75
2021/08/26 12:40:17;;;;;;;0.10;0.10;;;;;;;20.39;47.46;100909.75;6223751;28;20045;-76
2021/08/26 12:43:20;;;;;;;0.10;0.10;;;;;;;20.20;49.22;100930.13;6223375;28;20053;-76
2021/08/26 12:46:23;;;;;;;0.10;0.10;;;;;;;20.17;45.95;100929.56;6224320;28;20448;-77
2021/08/26 12:49:25;;;;;;;0.30;0.20;;;;;;;20.27;53.45;100920.56;6223814;28;20045;-77
2021/08/26 12:52:35;;;;;;;0.50;0.20;;;;;;;20.47;50.14;100912.56;6211205;28;20445;-77
2021/08/26 12:55:39;;;;;;;0.30;0.20;;;;;;;20.57;48.87;100913.41;6198802;28;20046;-77
2021/08/26 12:58:40;;;;;;;0.35;0.20;;;;;;;20.68;49.51;100915.09;6199002;28;20561;-77
2021/08/26 13:01:43;;;;;;;0.30;0.10;;;;;;;20.75;50.02;100906.34;6199006;28;20061;-77
2021/08/26 13:05:00;;;;;;;0.80;0.30;;;;;;;20.66;49.25;100911.72;6199229;28;20054;-78
2021/08/26 13:08:05;;;;;;;0.25;0.13;;;;;;;20.58;50.65;100911.63;6197914;28;20054;-78
2021/08/26 13:11:10;;;;;;;0.30;0.15;;;;;;;20.86;50.21;100897.34;6206127;28;20042;-78
2021/08/26 13:14:12;;;;;;;0.35;0.20;;;;;;;20.31;51.22;100906.97;6213681;28;20058;-77
2021/08/26 13:17:14;;;;;;;0.82;0.40;;;;;;;19.66;51.81;100912.75;6223219;28;20050;-77
2021/08/26 13:20:16;;;;;;;0.00;0.00;;;;;;;19.05;54.65;100909.28;6224263;28;20053;-77
2021/08/26 13:23:19;;;;;;;0.17;0.10;;;;;;;19.50;53.11;100913.25;6222728;28;20053;-78
2021/08/26 13:26:20;;;;;;;0.52;0.10;;;;;;;19.92;51.78;100914.94;6224077;28;20048;-78
2021/08/26 13:29:21;;;;;;;1.65;0.22;;;;;;;20.12;51.15;100923.78;6219460;23;20046;-77
2021/08/26 13:32:25;;;;;;;1.10;0.25;;;;;;;20.12;51.52;100899.78;6209921;28;20390;-76
2021/08/26 13:35:26;;;;;;;0.25;0.20;;;;;;;20.63;52.65;100906.69;6205726;28;20038;-78
2021/08/26 13:38:30;;;;;;;3.42;0.20;;;;;;;20.36;47.43;100912.72;6200609;28;20415;-78
2021/08/26 13:41:32;;;;;;;0.10;0.10;;;;;;;19.52;50.59;100913.09;6200022;28;20050;-76
2021/08/26 13:44:34;;;;;;;1.02;0.20;;;;;;;19.22;51.72;100912.16;6200993;28;20058;-79
2021/08/26 13:47:36;;;;;;;0.70;0.30;;;;;;;18.88;52.89;100913.38;6183851;28;20054;-77
2021/08/26 13:50:37;;;;;;;0.13;0.13;;;;;;;18.84;54.56;100903.97;6202079;28;20050;-77
2021/08/26 13:53:46;;;;;;;0.10;0.10;;;;;;;19.09;52.30;100913.38;6210612;28;20050;-77
2021/08/26 13:56:47;;;;;;;0.68;0.20;;;;;;;18.75;54.43;100909.09;6198415;28;20078;-78
2021/08/26 13:59:49;;;;;;;0.20;0.20;;;;;;;18.49;53.81;100916.63;6198467;28;20050;-76
2021/08/26 14:02:50;;;;;;;0.13;0.13;;;;;;;18.39;55.45;100915.69;6197728;28;20496;-73
2021/08/26 14:05:51;;;;;;;1.17;0.30;;;;;;;18.24;57.14;100920.47;6197528;28;20050;-73
2021/08/26 14:08:54;;;;;;;0.50;0.10;;;;;;;18.34;57.42;100922.34;6197338;28;20054;-73